Time;durP1;ratioP1;P1;durP2;ratioP2;P2;SDS_P1;SDS_P2;PMS_P1;PMS_P2;Temp;Humidity;BMP_temperature;BMP_pressure;BME280_temperature;BME280_humidity;BME280_pressure;Samples;Min_cycle;Max_cycle;Signal;HPM_P1;HPM_P2
2023/01/04 00:01:07;;;;;;;1.43;0.90;;;9.20;99.90;;;;;;5094629;28;20971;-79
2023/01/04 00:03:33;;;;;;;3.10;0.90;;;9.20;99.90;;;;;;5090826;28;20428;-79
2023/01/04 00:06:01;;;;;;;6.50;1.40;;;9.20;99.90;;;;;;5076586;28;20474;-79
2023/01/04 00:08:28;;;;;;;1.30;0.87;;;9.30;99.90;;;;;;5082513;28;20578;-79
2023/01/04 00:11:02;;;;;;;3.60;1.10;;;9.30;99.90;;;;;;5084509;28;21034;-79
2023/01/04 00:13:29;;;;;;;1.40;0.80;;;9.30;99.90;;;;;;5086252;28;20554;-79
2023/01/04 00:15:55;;;;;;;1.60;1.03;;;9.40;99.90;;;;;;5084385;28;20427;-79
2023/01/04 00:18:21;;;;;;;3.53;1.20;;;9.40;99.90;;;;;;5089547;28;20421;-79
2023/01/04 00:20:46;;;;;;;5.00;1.23;;;9.40;99.90;;;;;;5077735;28;20404;-79
2023/01/04 00:23:12;;;;;;;7.03;1.20;;;9.50;99.90;;;;;;5077009;28;20235;-80
2023/01/04 00:25:38;;;;;;;2.33;1.03;;;9.50;99.90;;;;;;5074680;28;20190;-79
2023/01/04 00:28:04;;;;;;;2.23;0.90;;;9.50;99.90;;;;;;5075064;28;20171;-80
2023/01/04 00:30:29;;;;;;;1.70;1.00;;;9.50;99.90;;;;;;5084358;28;20401;-79
2023/01/04 00:32:56;;;;;;;2.27;1.20;;;9.50;99.90;;;;;;5084515;28;20438;-79
2023/01/04 00:35:22;;;;;;;3.40;1.17;;;9.60;99.90;;;;;;5084481;28;20282;-79
2023/01/04 00:37:48;;;;;;;5.07;1.47;;;9.70;99.90;;;;;;5083447;28;20413;-80
2023/01/04 00:40:13;;;;;;;4.97;1.20;;;9.70;99.90;;;;;;5093344;28;20236;-80
2023/01/04 00:42:39;;;;;;;4.40;0.93;;;9.80;99.90;;;;;;5097736;28;20165;-80
2023/01/04 00:45:05;;;;;;;3.43;1.07;;;9.70;99.90;;;;;;5098195;28;20176;-79
2023/01/04 00:47:30;;;;;;;2.70;0.90;;;9.70;99.90;;;;;;5102488;28;20181;-79
2023/01/04 00:49:56;;;;;;;1.67;1.10;;;9.70;99.90;;;;;;5098042;28;20510;-80
2023/01/04 00:52:21;;;;;;;4.13;1.40;;;9.80;99.90;;;;;;5094012;28;20648;-79
2023/01/04 00:54:47;;;;;;;3.37;1.00;;;9.70;99.90;;;;;;5075628;28;20292;-79
2023/01/04 00:57:12;;;;;;;1.93;1.13;;;9.70;99.90;;;;;;5075828;28;20192;-80
2023/01/04 00:59:38;;;;;;;5.03;1.70;;;9.60;99.90;;;;;;5074665;28;20209;-80
2023/01/04 01:02:03;;;;;;;4.40;1.27;;;9.60;99.90;;;;;;5083794;28;20674;-79
2023/01/04 01:04:29;;;;;;;2.73;0.93;;;9.60;99.90;;;;;;5095617;28;20268;-79
2023/01/04 01:06:54;;;;;;;3.77;1.10;;;9.60;99.90;;;;;;5099109;28;20261;-79
2023/01/04 01:09:21;;;;;;;1.50;0.90;;;9.60;99.90;;;;;;5100446;28;20219;-79
2023/01/04 01:11:47;;;;;;;1.70;1.00;;;9.60;99.90;;;;;;5104467;28;20180;-79
2023/01/04 01:14:18;;;;;;;3.33;1.50;;;9.60;99.90;;;;;;5103857;28;20459;-79
2023/01/04 01:16:44;;;;;;;2.07;1.00;;;9.60;99.90;;;;;;5090217;28;20190;-79
2023/01/04 01:19:10;;;;;;;2.13;1.40;;;9.50;99.90;;;;;;5076352;28;20893;-79
2023/01/04 01:21:36;;;;;;;2.07;1.00;;;9.50;99.90;;;;;;5078394;28;20679;-80
2023/01/04 01:24:03;;;;;;;1.10;0.73;;;9.40;99.90;;;;;;5078506;28;20170;-80
2023/01/04 01:26:28;;;;;;;4.53;1.23;;;9.50;99.90;;;;;;5081678;28;20444;-79
2023/01/04 01:28:54;;;;;;;2.67;1.20;;;9.40;99.90;;;;;;5084405;28;20420;-80
2023/01/04 01:31:22;;;;;;;2.80;1.53;;;9.50;99.90;;;;;;5099232;28;20230;-80
2023/01/04 01:33:49;;;;;;;3.03;1.30;;;9.50;99.90;;;;;;5099696;28;20207;-79
2023/01/04 01:36:17;;;;;;;2.63;1.40;;;9.50;99.90;;;;;;5103113;28;20465;-79
2023/01/04 01:38:43;;;;;;;4.80;1.70;;;9.60;99.90;;;;;;5080278;28;20411;-80
2023/01/04 01:41:25;;;;;;;9.43;1.00;;;9.60;99.90;;;;;;5097101;28;20412;-81
2023/01/04 01:43:59;;;;;;;1.63;0.90;;;9.60;99.90;;;;;;5077898;28;20501;-81
2023/01/04 01:46:35;;;;;;;2.43;1.17;;;9.60;99.90;;;;;;5081811;28;20443;-80
2023/01/04 01:49:30;;;;;;;1.83;1.07;;;9.50;99.90;;;;;;5093248;28;20403;-82
2023/01/04 01:51:58;;;;;;;6.33;1.40;;;9.40;99.90;;;;;;5093095;28;20412;-81
2023/01/04 01:54:46;;;;;;;1.37;1.10;;;9.40;99.90;;;;;;5091732;28;20467;-81
2023/01/04 01:57:16;;;;;;;5.27;1.23;;;9.40;99.90;;;;;;5072989;28;20443;-81
2023/01/04 01:59:45;;;;;;;2.40;1.10;;;9.40;99.90;;;;;;5075163;28;20842;-80
2023/01/04 02:02:11;;;;;;;5.00;1.30;;;9.50;99.90;;;;;;5083471;28;20416;-80
2023/01/04 02:04:40;;;;;;;4.50;1.40;;;9.50;99.90;;;;;;5074398;28;20937;-80
2023/01/04 02:07:07;;;;;;;2.30;1.27;;;9.50;99.90;;;;;;5072748;28;20487;-80
2023/01/04 02:09:33;;;;;;;2.93;1.43;;;9.60;99.90;;;;;;5076616;28;20404;-81
2023/01/04 02:11:58;;;;;;;3.20;1.00;;;9.70;99.90;;;;;;5075208;28;20507;-80
2023/01/04 02:14:28;;;;;;;1.80;1.00;;;9.80;99.90;;;;;;5075141;28;20644;-80
2023/01/04 02:17:08;;;;;;;3.77;1.17;;;9.80;99.90;;;;;;5092887;28;20201;-80
2023/01/04 02:20:07;;;;;;;1.30;0.90;;;9.90;99.90;;;;;;5099185;28;20419;-81
2023/01/04 02:22:51;;;;;;;1.50;0.80;;;10.00;99.90;;;;;;5086544;28;20412;-81
2023/01/04 02:25:50;;;;;;;1.43;0.80;;;10.00;99.90;;;;;;5079361;28;20475;-81
2023/01/04 02:28:41;;;;;;;3.20;1.10;;;10.00;99.90;;;;;;5080221;28;20420;-80
2023/01/04 02:31:45;;;;;;;1.40;0.80;;;10.00;99.90;;;;;;5078863;28;20439;-80
2023/01/04 02:34:25;;;;;;;4.90;0.97;;;9.90;99.90;;;;;;5019479;28;20497;-80
2023/01/04 02:36:53;;;;;;;4.57;1.17;;;9.80;99.90;;;;;;5023194;28;20467;-81
2023/01/04 02:39:46;;;;;;;5.60;0.90;;;9.80;99.90;;;;;;5069707;28;20436;-80
2023/01/04 02:44:51;;;;;;;2.33;1.07;;;9.80;99.90;;;;;;5078615;28;20424;-80
2023/01/04 02:45:19;;;;;;;2.60;0.90;;;9.80;99.90;;;;;;5081567;28;20494;-80
2023/01/04 02:50:36;;;;;;;1.77;0.80;;;10.00;99.90;;;;;;5090686;28;20420;-79
2023/01/04 02:53:15;;;;;;;2.40;0.73;;;10.10;99.90;;;;;;5090637;28;20581;-80
2023/01/04 02:55:54;;;;;;;1.97;1.03;;;10.20;99.90;;;;;;5102025;28;20517;-79
2023/01/04 02:58:41;;;;;;;2.13;1.00;;;10.30;99.90;;;;;;5101243;28;20426;-80
2023/01/04 03:08:03;;;;;;;2.50;0.70;;;10.40;99.90;;;;;;5079314;28;20391;-79
2023/01/04 03:11:01;;;;;;;1.63;0.70;;;10.40;99.90;;;;;;5078708;28;20412;-81
2023/01/04 03:13:39;;;;;;;1.20;0.67;;;10.40;99.90;;;;;;5079295;28;20460;-80
2023/01/04 03:16:15;;;;;;;1.00;0.60;;;10.40;99.90;;;;;;5099637;28;20507;-79
2023/01/04 03:18:45;;;;;;;1.00;0.60;;;10.40;99.90;;;;;;5086405;28;20416;-80
2023/01/04 03:21:14;;;;;;;2.27;0.70;;;10.40;99.90;;;;;;5085144;28;20841;-79
2023/01/04 03:37:41;;;;;;;1.10;0.60;;;10.50;99.90;;;;;;5083252;28;20456;-79
2023/01/04 03:49:00;;;;;;;1.03;0.60;;;10.60;99.90;;;;;;5081724;28;20399;-79
2023/01/04 03:51:30;;;;;;;1.00;0.50;;;10.60;99.90;;;;;;5080635;28;20905;-80
2023/01/04 03:54:03;;;;;;;1.10;0.73;;;10.50;99.90;;;;;;5076876;28;20456;-80
2023/01/04 03:56:31;;;;;;;1.00;0.50;;;10.60;99.90;;;;;;5073776;28;20420;-80
2023/01/04 03:58:56;;;;;;;1.00;0.50;;;10.60;99.90;;;;;;5082742;28;20419;-80
2023/01/04 04:01:25;;;;;;;1.43;0.70;;;10.60;99.90;;;;;;5085068;28;20408;-79
2023/01/04 04:09:19;;;;;;;1.00;0.50;;;10.60;99.90;;;;;;5081309;28;20897;-80
2023/01/04 04:11:44;;;;;;;1.10;0.60;;;10.50;99.90;;;;;;5085384;28;20404;-80
2023/01/04 04:14:10;;;;;;;2.60;0.80;;;10.40;99.90;;;;;;5085601;28;20292;-80
2023/01/04 04:16:35;;;;;;;1.00;0.60;;;10.30;99.90;;;;;;5085759;28;20186;-80
2023/01/04 04:19:01;;;;;;;1.10;0.60;;;10.20;99.90;;;;;;5085994;28;20259;-80
2023/01/04 04:21:27;;;;;;;1.33;0.70;;;10.10;99.90;;;;;;5082222;28;20174;-80
2023/01/04 04:23:54;;;;;;;5.07;0.90;;;10.00;99.90;;;;;;5081002;28;20174;-80
2023/01/04 04:26:20;;;;;;;1.17;0.60;;;9.90;99.90;;;;;;5080215;28;20207;-80
2023/01/04 04:28:46;;;;;;;1.10;0.50;;;9.90;99.90;;;;;;5079603;28;20405;-81
2023/01/04 04:31:12;;;;;;;1.10;0.57;;;9.90;99.90;;;;;;5099464;28;20173;-81
2023/01/04 04:33:38;;;;;;;1.00;0.60;;;9.90;99.90;;;;;;5099224;28;20480;-81
2023/01/04 04:36:05;;;;;;;1.00;0.60;;;9.90;99.90;;;;;;5100539;28;20454;-81
2023/01/04 04:38:31;;;;;;;1.30;0.67;;;9.90;99.90;;;;;;5101330;28;20486;-80
2023/01/04 04:43:40;;;;;;;1.30;0.63;;;10.10;99.90;;;;;;5080557;28;20177;-80
2023/01/04 04:46:06;;;;;;;1.27;0.70;;;10.10;99.90;;;;;;5078531;28;20437;-79
2023/01/04 04:48:31;;;;;;;1.00;0.50;;;10.10;99.90;;;;;;5076164;28;20166;-79
2023/01/04 04:50:57;;;;;;;1.40;0.60;;;10.10;99.90;;;;;;5074137;28;20591;-79
2023/01/04 04:53:22;;;;;;;1.40;0.80;;;10.10;99.90;;;;;;5077953;28;20205;-80
2023/01/04 04:55:52;;;;;;;1.10;0.60;;;10.20;99.90;;;;;;5078816;28;20197;-80
2023/01/04 04:58:19;;;;;;;1.00;0.60;;;10.30;99.90;;;;;;5079810;28;20207;-80
2023/01/04 05:00:44;;;;;;;1.10;0.60;;;10.30;99.90;;;;;;5088414;28;20481;-80
2023/01/04 05:03:10;;;;;;;1.10;0.60;;;10.30;99.90;;;;;;5101420;28;20403;-80
2023/01/04 05:05:35;;;;;;;1.00;0.50;;;10.40;99.90;;;;;;5100754;28;20620;-80
2023/01/04 05:08:01;;;;;;;1.20;0.60;;;10.40;99.90;;;;;;5101012;28;20654;-80
2023/01/04 05:10:26;;;;;;;1.00;0.50;;;10.50;99.90;;;;;;5101364;28;20196;-80
2023/01/04 05:13:00;;;;;;;1.00;0.50;;;10.50;99.90;;;;;;5083563;28;20194;-81
2023/01/04 05:15:48;;;;;;;1.07;0.63;;;10.50;99.90;;;;;;5081190;28;20556;-80
2023/01/04 05:18:17;;;;;;;1.50;0.57;;;10.60;99.90;;;;;;5080985;28;20426;-80
2023/01/04 05:20:43;;;;;;;1.10;0.50;;;10.50;99.90;;;;;;5079195;28;20408;-79
2023/01/04 05:23:12;;;;;;;1.07;0.57;;;10.60;99.90;;;;;;5079636;28;20435;-79
2023/01/04 05:25:38;;;;;;;1.00;0.60;;;10.60;99.90;;;;;;5082293;28;20431;-79
2023/01/04 05:28:04;;;;;;;1.10;0.60;;;10.60;99.90;;;;;;5083918;28;20473;-80
2023/01/04 05:33:14;;;;;;;1.00;0.50;;;10.70;99.90;;;;;;5074875;28;20407;-79
2023/01/04 05:35:39;;;;;;;1.50;0.80;;;10.80;99.90;;;;;;5072720;28;20464;-81
2023/01/04 05:38:05;;;;;;;1.00;0.50;;;10.80;99.90;;;;;;5078346;28;20256;-79
2023/01/04 05:40:31;;;;;;;1.03;0.57;;;10.80;99.90;;;;;;5080929;28;20181;-80
2023/01/04 05:42:56;;;;;;;1.00;0.60;;;10.90;99.90;;;;;;5081912;28;20168;-80
2023/01/04 05:45:22;;;;;;;1.00;0.50;;;10.90;99.90;;;;;;5084092;28;20258;-79
2023/01/04 05:47:49;;;;;;;1.00;0.60;;;10.90;99.90;;;;;;5082776;28;20197;-81
2023/01/04 05:50:16;;;;;;;1.60;0.60;;;10.90;99.90;;;;;;5074495;28;20655;-82
2023/01/04 05:52:41;;;;;;;1.00;0.50;;;10.90;99.90;;;;;;5074437;28;20409;-81
2023/01/04 05:55:07;;;;;;;1.00;0.60;;;11.00;99.90;;;;;;5075740;28;20543;-79
2023/01/04 05:57:33;;;;;;;1.00;0.50;;;11.00;99.90;;;;;;5076374;28;20224;-80
2023/01/04 05:59:58;;;;;;;1.00;0.60;;;11.00;99.90;;;;;;5094204;28;20792;-80
2023/01/04 06:02:28;;;;;;;1.00;0.50;;;11.00;99.90;;;;;;5075600;28;20209;-80
2023/01/04 06:04:54;;;;;;;1.00;0.60;;;11.10;99.90;;;;;;5076363;28;20217;-80
2023/01/04 06:07:19;;;;;;;1.00;0.60;;;11.10;99.90;;;;;;5078638;28;20826;-81
2023/01/04 06:09:45;;;;;;;1.30;0.70;;;11.10;99.90;;;;;;5079920;28;20205;-80
2023/01/04 06:12:11;;;;;;;1.00;0.50;;;11.10;99.90;;;;;;5078855;28;20193;-80
2023/01/04 06:14:37;;;;;;;1.20;0.80;;;11.20;99.90;;;;;;5078097;28;20198;-81
2023/01/04 06:17:03;;;;;;;1.00;0.50;;;11.20;99.90;;;;;;5111495;28;20435;-79
2023/01/04 06:19:28;;;;;;;1.00;0.50;;;11.20;99.90;;;;;;5082357;28;20166;-81
2023/01/04 06:21:54;;;;;;;1.00;0.60;;;11.10;99.90;;;;;;5083157;28;20454;-80
2023/01/04 06:24:19;;;;;;;1.10;0.60;;;11.10;99.90;;;;;;5082206;28;20193;-80
2023/01/04 06:26:45;;;;;;;1.00;0.50;;;11.20;99.90;;;;;;5082102;28;20205;-80
2023/01/04 06:29:11;;;;;;;1.33;0.60;;;11.20;99.90;;;;;;5082224;28;20166;-78
2023/01/04 06:31:36;;;;;;;1.10;0.60;;;11.30;99.90;;;;;;5084842;28;20242;-79
2023/01/04 06:34:02;;;;;;;1.03;0.50;;;11.30;99.90;;;;;;5083618;28;20217;-81
2023/01/04 06:36:28;;;;;;;1.17;0.50;;;11.30;99.90;;;;;;5082591;28;20197;-81
2023/01/04 06:38:56;;;;;;;1.20;0.60;;;11.30;99.90;;;;;;5083429;28;20458;-80
2023/01/04 06:41:22;;;;;;;1.00;0.50;;;11.30;99.90;;;;;;5082012;28;20174;-80
2023/01/04 06:43:48;;;;;;;1.00;0.50;;;11.30;99.90;;;;;;5081111;28;20424;-80
2023/01/04 06:46:13;;;;;;;1.03;0.60;;;11.40;99.90;;;;;;5081313;28;20216;-80
2023/01/04 06:48:39;;;;;;;1.10;0.50;;;11.40;99.90;;;;;;5081379;28;20420;-80
2023/01/04 06:51:05;;;;;;;1.80;0.57;;;11.40;99.90;;;;;;5098786;28;20241;-80
2023/01/04 06:53:30;;;;;;;1.10;0.60;;;11.50;99.90;;;;;;5102249;28;20482;-80
2023/01/04 06:55:56;;;;;;;2.03;0.60;;;11.40;99.90;;;;;;5102585;28;20189;-80
2023/01/04 06:58:22;;;;;;;1.00;0.60;;;11.40;99.90;;;;;;5101901;28;20177;-79
2023/01/04 07:00:50;;;;;;;1.00;0.60;;;11.30;99.90;;;;;;5103668;28;20433;-79
2023/01/04 07:03:16;;;;;;;1.10;0.60;;;11.30;99.90;;;;;;5097314;28;20171;-80
2023/01/04 07:05:42;;;;;;;1.00;0.60;;;11.40;99.90;;;;;;5081102;28;20424;-80
2023/01/04 07:08:08;;;;;;;1.00;0.50;;;11.30;99.90;;;;;;5081220;28;20607;-80
2023/01/04 07:10:33;;;;;;;1.00;0.50;;;11.40;99.90;;;;;;5081402;28;20424;-81
2023/01/04 07:12:59;;;;;;;1.00;0.60;;;11.40;99.90;;;;;;5081949;28;20714;-80
2023/01/04 07:15:24;;;;;;;1.10;0.60;;;11.50;99.90;;;;;;5081386;28;20205;-81
2023/01/04 07:17:50;;;;;;;1.10;0.70;;;11.40;99.90;;;;;;5082044;28;20166;-80
2023/01/04 07:20:16;;;;;;;1.20;0.63;;;11.50;99.90;;;;;;5080698;28;20189;-81
2023/01/04 07:22:42;;;;;;;1.00;0.50;;;11.40;99.90;;;;;;5082664;28;20166;-80
2023/01/04 07:25:08;;;;;;;1.00;0.50;;;11.50;99.90;;;;;;5082302;28;20910;-81
2023/01/04 07:27:34;;;;;;;1.10;0.60;;;11.50;99.90;;;;;;5101438;28;20184;-80
2023/01/04 07:29:59;;;;;;;1.10;0.60;;;11.50;99.90;;;;;;5099238;28;21086;-81
2023/01/04 07:32:25;;;;;;;1.10;0.57;;;11.50;99.90;;;;;;5101039;28;20208;-82
2023/01/04 07:34:51;;;;;;;1.10;0.60;;;11.50;99.90;;;;;;5085921;28;20206;-80
2023/01/04 07:37:16;;;;;;;2.30;0.60;;;11.50;99.90;;;;;;5080886;28;20190;-78
2023/01/04 07:39:42;;;;;;;1.20;0.97;;;11.50;99.90;;;;;;5081477;28;20166;-80
2023/01/04 07:42:11;;;;;;;1.20;0.70;;;11.40;99.90;;;;;;5079929;28;20243;-80
2023/01/04 07:44:36;;;;;;;1.00;0.50;;;11.40;99.90;;;;;;5080639;28;20444;-81
2023/01/04 07:47:02;;;;;;;1.10;0.57;;;11.40;99.90;;;;;;5081404;28;20748;-80
2023/01/04 07:49:28;;;;;;;1.30;0.70;;;11.50;99.90;;;;;;5080873;28;20174;-81
2023/01/04 07:51:53;;;;;;;1.10;0.70;;;11.50;99.90;;;;;;5078725;28;20839;-80
2023/01/04 07:54:19;;;;;;;1.10;0.63;;;11.50;99.90;;;;;;5079984;28;20251;-80
2023/01/04 07:56:46;;;;;;;1.00;0.50;;;11.50;99.90;;;;;;5090799;28;20190;-81
2023/01/04 07:59:13;;;;;;;1.10;0.60;;;11.50;99.90;;;;;;5081381;28;20170;-81
2023/01/04 08:01:39;;;;;;;1.10;0.60;;;11.50;99.90;;;;;;5081049;28;20412;-80
2023/01/04 08:04:10;;;;;;;1.00;0.60;;;11.50;99.90;;;;;;5087965;28;20415;-80
2023/01/04 08:06:37;;;;;;;1.30;0.70;;;11.60;99.90;;;;;;5081681;28;20456;-81
2023/01/04 08:09:04;;;;;;;1.00;0.50;;;11.70;99.90;;;;;;5078919;28;20476;-80
2023/01/04 08:11:29;;;;;;;1.20;0.70;;;11.70;99.90;;;;;;5081963;28;20420;-80
2023/01/04 08:13:55;;;;;;;1.00;0.50;;;11.70;99.90;;;;;;5079728;28;21013;-79
2023/01/04 08:16:32;;;;;;;1.00;0.60;;;11.70;99.90;;;;;;5079747;28;20555;-81
2023/01/04 08:19:07;;;;;;;1.00;0.50;;;11.80;99.90;;;;;;5080955;28;20232;-80
2023/01/04 08:21:34;;;;;;;1.10;0.90;;;11.80;99.90;;;;;;5080840;28;20488;-81
2023/01/04 08:24:01;;;;;;;1.10;0.60;;;11.80;99.90;;;;;;5082461;28;20416;-80
2023/01/04 08:26:27;;;;;;;1.00;0.60;;;11.80;99.90;;;;;;5081458;28;20464;-80
2023/01/04 08:28:55;;;;;;;1.00;0.50;;;11.80;99.90;;;;;;5081850;28;20424;-80
2023/01/04 08:31:23;;;;;;;1.20;0.60;;;11.90;99.90;;;;;;5081610;28;20417;-80
2023/01/04 08:33:49;;;;;;;1.10;0.60;;;11.90;99.90;;;;;;5081474;28;20493;-80
2023/01/04 08:36:26;;;;;;;1.40;0.60;;;11.90;99.90;;;;;;5080454;28;20432;-80
2023/01/04 08:39:04;;;;;;;1.30;0.70;;;11.90;99.90;;;;;;5080856;28;20913;-81
2023/01/04 08:41:31;;;;;;;1.10;0.60;;;11.90;99.90;;;;;;5080642;28;20967;-81
2023/01/04 08:43:56;;;;;;;3.90;0.93;;;12.00;99.90;;;;;;5082454;28;20421;-80
2023/01/04 08:46:22;;;;;;;1.20;0.70;;;12.00;99.90;;;;;;5080053;28;20459;-80
2023/01/04 08:48:47;;;;;;;1.03;0.60;;;12.00;99.90;;;;;;5081108;28;20228;-80
2023/01/04 08:51:15;;;;;;;1.20;0.70;;;12.10;99.90;;;;;;5079883;28;20175;-81
2023/01/04 08:53:41;;;;;;;1.93;0.60;;;12.10;99.90;;;;;;5080297;28;20194;-80
2023/01/04 08:56:07;;;;;;;1.10;0.60;;;12.10;99.90;;;;;;5080636;28;20428;-80
2023/01/04 08:58:35;;;;;;;1.10;0.60;;;12.20;99.90;;;;;;5079973;28;20409;-80
2023/01/04 09:01:05;;;;;;;1.40;0.70;;;12.30;99.90;;;;;;5080701;28;20405;-80
2023/01/04 09:03:31;;;;;;;1.43;0.70;;;12.40;99.90;;;;;;5078628;28;20420;-80
2023/01/04 09:06:11;;;;;;;1.10;0.60;;;12.50;99.90;;;;;;5080771;28;20497;-80
2023/01/04 09:08:38;;;;;;;1.00;0.60;;;12.60;99.90;;;;;;5081180;28;20265;-80
2023/01/04 09:11:12;;;;;;;1.00;0.50;;;12.60;99.90;;;;;;5079096;28;20412;-80
2023/01/04 09:13:38;;;;;;;1.00;0.50;;;12.60;99.90;;;;;;5080346;28;20464;-80
2023/01/04 09:16:07;;;;;;;1.00;0.57;;;12.70;99.90;;;;;;5080214;28;20444;-81
2023/01/04 09:18:33;;;;;;;1.13;0.60;;;12.80;99.90;;;;;;5098696;28;20427;-80
2023/01/04 09:21:04;;;;;;;1.00;0.50;;;12.90;99.90;;;;;;5099423;28;20784;-80
2023/01/04 09:23:30;;;;;;;1.00;0.60;;;13.00;99.90;;;;;;5097026;28;20408;-80
2023/01/04 09:25:55;;;;;;;1.50;0.83;;;13.10;99.90;;;;;;5098333;28;20464;-80
2023/01/04 09:28:21;;;;;;;1.00;0.60;;;13.10;99.90;;;;;;5091317;28;20242;-80
2023/01/04 09:30:46;;;;;;;1.87;0.80;;;13.20;99.90;;;;;;5077814;28;20648;-80
2023/01/04 09:33:12;;;;;;;1.20;0.70;;;13.30;99.90;;;;;;5076511;28;20249;-78
2023/01/04 09:35:37;;;;;;;1.00;0.50;;;13.30;99.90;;;;;;5076610;28;20201;-79
2023/01/04 09:38:03;;;;;;;1.37;0.80;;;13.40;99.90;;;;;;5079534;28;20193;-78
2023/01/04 09:40:48;;;;;;;1.60;0.60;;;13.50;99.90;;;;;;5084059;28;20177;-78
2023/01/04 09:43:18;;;;;;;1.77;0.80;;;13.50;99.90;;;;;;5080597;28;20173;-78
2023/01/04 09:45:44;;;;;;;1.70;0.70;;;13.60;99.90;;;;;;5077684;28;20428;-79
2023/01/04 09:48:14;;;;;;;4.40;0.80;;;13.60;99.90;;;;;;5077816;28;20835;-79
2023/01/04 09:50:44;;;;;;;1.40;0.63;;;13.60;99.90;;;;;;5078368;28;20409;-79
2023/01/04 09:54:02;;;;;;;1.60;0.80;;;13.70;99.90;;;;;;5077877;28;20507;-79
2023/01/04 09:56:33;;;;;;;1.10;0.60;;;13.70;99.90;;;;;;5073504;28;20468;-79
2023/01/04 09:59:08;;;;;;;2.50;0.67;;;13.70;99.90;;;;;;5081560;28;20424;-79
2023/01/04 10:01:54;;;;;;;1.00;0.60;;;13.60;99.90;;;;;;5080957;28;20470;-79
2023/01/04 10:04:27;;;;;;;4.03;0.83;;;13.60;99.90;;;;;;5082022;28;20428;-79
2023/01/04 10:06:53;;;;;;;1.20;0.60;;;13.60;99.90;;;;;;5081613;28;20432;-79
2023/01/04 10:09:19;;;;;;;1.20;0.70;;;13.60;99.90;;;;;;5080884;28;20454;-81
2023/01/04 10:12:11;;;;;;;1.10;0.60;;;13.60;99.90;;;;;;5081463;28;20590;-78
2023/01/04 10:15:07;;;;;;;1.33;0.83;;;13.60;99.90;;;;;;5080433;28;20463;-79
2023/01/04 10:17:35;;;;;;;2.53;0.73;;;13.60;99.90;;;;;;5107761;28;20412;-79
2023/01/04 10:20:23;;;;;;;1.73;0.70;;;13.60;99.90;;;;;;5100435;28;20445;-79
2023/01/04 10:23:13;;;;;;;1.00;0.50;;;13.70;99.90;;;;;;5100786;28;20402;-79
2023/01/04 10:25:56;;;;;;;1.10;0.70;;;13.60;99.90;;;;;;5101545;28;20463;-80
2023/01/04 10:28:32;;;;;;;2.13;1.00;;;13.30;99.90;;;;;;5100736;28;20463;-80
2023/01/04 10:31:25;;;;;;;1.00;0.60;;;12.90;99.90;;;;;;5081475;28;20438;-79
2023/01/04 10:34:14;;;;;;;1.17;0.63;;;12.70;99.90;;;;;;5115157;28;20451;-79
2023/01/04 10:36:41;;;;;;;1.30;0.70;;;12.50;99.90;;;;;;5081446;28;20856;-80
2023/01/04 10:39:34;;;;;;;1.20;0.83;;;12.40;99.90;;;;;;5082329;28;20426;-80
2023/01/04 10:42:35;;;;;;;1.20;0.60;;;12.30;99.90;;;;;;5082358;28;20783;-80
2023/01/04 10:45:18;;;;;;;1.77;0.93;;;12.20;99.90;;;;;;5077642;28;20408;-80
2023/01/04 10:48:01;;;;;;;1.30;0.67;;;12.10;99.90;;;;;;5082857;28;20408;-80
2023/01/04 10:50:37;;;;;;;1.20;0.70;;;12.10;99.90;;;;;;5082629;28;20436;-81
2023/01/04 10:53:34;;;;;;;1.13;0.63;;;12.10;99.90;;;;;;5081560;28;20416;-80
2023/01/04 10:56:11;;;;;;;2.50;0.93;;;12.20;99.90;;;;;;5082697;28;20455;-80
2023/01/04 10:58:54;;;;;;;1.00;0.60;;;12.20;99.90;;;;;;5081555;28;20420;-80
2023/01/04 11:01:28;;;;;;;2.70;1.00;;;12.30;99.90;;;;;;5099404;28;20963;-81
2023/01/04 11:04:25;;;;;;;2.93;1.00;;;12.30;99.90;;;;;;5082994;28;20475;-80
2023/01/04 11:07:01;;;;;;;3.40;0.70;;;12.30;99.90;;;;;;5103076;28;20504;-80
2023/01/04 11:09:35;;;;;;;1.67;1.17;;;12.40;99.90;;;;;;5104541;28;20869;-80
2023/01/04 11:12:01;;;;;;;1.60;0.90;;;12.40;99.90;;;;;;5103955;28;20481;-81
2023/01/04 11:14:27;;;;;;;1.10;0.60;;;12.50;99.90;;;;;;5102478;28;20502;-80
2023/01/04 11:16:59;;;;;;;1.67;0.87;;;12.50;99.90;;;;;;5093848;28;20455;-80
2023/01/04 11:19:26;;;;;;;1.00;0.50;;;12.50;99.90;;;;;;5082360;28;20492;-81
2023/01/04 11:22:04;;;;;;;1.37;0.67;;;12.50;99.90;;;;;;5079763;28;20499;-80
2023/01/04 11:24:31;;;;;;;1.20;0.70;;;12.60;99.90;;;;;;5079577;28;20432;-80
2023/01/04 11:27:03;;;;;;;2.50;0.80;;;12.70;99.90;;;;;;5081940;28;20503;-80
2023/01/04 11:29:39;;;;;;;2.23;0.80;;;12.70;99.90;;;;;;5091655;28;20482;-80
2023/01/04 11:32:33;;;;;;;4.70;0.83;;;12.80;99.90;;;;;;5100166;28;20446;-80
2023/01/04 11:34:58;;;;;;;1.10;0.60;;;12.90;99.90;;;;;;5101699;28;20455;-80
2023/01/04 11:37:32;;;;;;;1.40;0.70;;;13.00;99.90;;;;;;5094539;28;20495;-79
2023/01/04 11:40:16;;;;;;;1.70;0.60;;;13.00;99.90;;;;;;5079533;28;20630;-80
2023/01/04 11:43:06;;;;;;;1.47;0.70;;;13.10;99.90;;;;;;5078783;28;20811;-80
2023/01/04 11:45:31;;;;;;;1.10;0.60;;;13.20;99.90;;;;;;5069034;28;20432;-80
2023/01/04 11:47:59;;;;;;;1.60;0.80;;;13.20;99.90;;;;;;5079891;28;20476;-80
2023/01/04 11:50:39;;;;;;;1.00;0.60;;;13.30;99.90;;;;;;5078808;28;20257;-80
2023/01/04 11:53:33;;;;;;;2.03;0.73;;;13.30;99.90;;;;;;5079615;28;20412;-80
2023/01/04 11:56:13;;;;;;;1.00;0.50;;;13.40;99.90;;;;;;5084510;28;20590;-80
2023/01/04 11:58:39;;;;;;;1.00;0.60;;;13.40;99.90;;;;;;5080389;28;20407;-80
2023/01/04 12:01:05;;;;;;;1.20;0.70;;;13.40;99.90;;;;;;5094790;28;20468;-80
2023/01/04 12:03:37;;;;;;;1.00;0.60;;;13.50;99.90;;;;;;5100860;28;20423;-80
2023/01/04 12:06:12;;;;;;;1.00;0.50;;;13.50;99.90;;;;;;5098427;28;20193;-80
2023/01/04 12:08:38;;;;;;;1.10;0.60;;;13.50;99.90;;;;;;5098923;28;20472;-81
2023/01/04 12:11:05;;;;;;;1.10;0.60;;;13.50;99.90;;;;;;5098516;28;20820;-80
2023/01/04 12:13:32;;;;;;;1.13;0.67;;;13.50;99.90;;;;;;5093872;28;20225;-81
2023/01/04 12:16:21;;;;;;;1.10;0.60;;;13.50;99.90;;;;;;5079820;28;20425;-80
2023/01/04 12:18:47;;;;;;;2.33;0.60;;;13.50;99.90;;;;;;5079067;28;20411;-80
2023/01/04 12:21:21;;;;;;;1.03;0.60;;;13.50;99.90;;;;;;5075793;28;20884;-80
2023/01/04 12:23:47;;;;;;;1.63;0.70;;;13.60;99.90;;;;;;5074304;28;20159;-81
2023/01/04 12:26:14;;;;;;;1.27;0.60;;;13.60;99.90;;;;;;5073175;28;20523;-80
2023/01/04 12:28:45;;;;;;;1.10;0.60;;;13.60;99.90;;;;;;5074912;28;20415;-79
2023/01/04 12:31:20;;;;;;;1.00;0.50;;;13.60;99.90;;;;;;5073327;28;20424;-80
2023/01/04 12:33:55;;;;;;;3.20;0.70;;;13.60;99.90;;;;;;5074141;28;20482;-80
2023/01/04 12:36:38;;;;;;;1.10;0.57;;;13.60;99.90;;;;;;5074121;28;20427;-80
2023/01/04 12:39:13;;;;;;;1.00;0.50;;;13.60;99.90;;;;;;5075682;28;20393;-79
2023/01/04 12:41:39;;;;;;;1.00;0.60;;;13.60;99.90;;;;;;5092752;28;20883;-79
2023/01/04 12:44:50;;;;;;;1.00;0.60;;;13.50;99.90;;;;;;5095954;28;20408;-79
2023/01/04 12:50:07;;;;;;;1.13;0.67;;;13.50;99.90;;;;;;5098447;28;21112;-79
2023/01/04 12:52:33;;;;;;;1.10;0.60;;;13.50;99.90;;;;;;5090667;28;20948;-79
2023/01/04 12:55:22;;;;;;;1.00;0.50;;;13.60;99.90;;;;;;5073376;28;20456;-81
2023/01/04 12:57:47;;;;;;;1.00;0.50;;;13.60;99.90;;;;;;5073047;28;20332;-83
2023/01/04 13:00:15;;;;;;;1.20;0.63;;;13.50;99.90;;;;;;5073616;28;20873;-80
2023/01/04 13:02:52;;;;;;;1.00;0.50;;;13.50;99.90;;;;;;5073970;28;20188;-79
2023/01/04 13:05:20;;;;;;;1.00;0.50;;;13.50;99.90;;;;;;5071840;28;20439;-79
2023/01/04 13:07:47;;;;;;;1.30;0.73;;;13.50;99.90;;;;;;5074062;28;20979;-79
2023/01/04 13:10:35;;;;;;;2.57;1.10;;;13.50;99.90;;;;;;5072371;28;20525;-80
2023/01/04 13:13:24;;;;;;;1.00;0.50;;;13.40;99.90;;;;;;5077769;28;20424;-80
2023/01/04 13:16:25;;;;;;;1.10;0.60;;;13.30;99.90;;;;;;5094440;28;20450;-79
2023/01/04 13:18:56;;;;;;;1.00;0.50;;;13.30;99.90;;;;;;5100158;28;20388;-80
2023/01/04 13:21:37;;;;;;;1.47;1.23;;;13.30;99.90;;;;;;5097294;28;20955;-81
2023/01/04 13:24:12;;;;;;;1.10;0.60;;;13.30;99.90;;;;;;5091036;28;20423;-80
2023/01/04 13:26:41;;;;;;;1.10;0.60;;;13.20;99.90;;;;;;5081747;28;20408;-81
2023/01/04 13:29:27;;;;;;;2.17;1.07;;;13.10;99.90;;;;;;5077654;28;20423;-80
2023/01/04 13:31:57;;;;;;;1.10;0.63;;;13.10;99.90;;;;;;5095858;28;20411;-79
2023/01/04 13:34:30;;;;;;;1.37;0.87;;;13.10;99.90;;;;;;5078970;28;20462;-79
2023/01/04 13:37:10;;;;;;;1.20;0.60;;;13.10;99.90;;;;;;5090614;28;20522;-79
2023/01/04 13:40:00;;;;;;;1.00;0.50;;;13.20;99.90;;;;;;5100462;28;20411;-79
2023/01/04 13:42:33;;;;;;;1.10;0.60;;;13.20;99.90;;;;;;5104088;28;20407;-80
2023/01/04 13:45:20;;;;;;;1.53;0.80;;;13.20;99.90;;;;;;5101815;28;20465;-77
2023/01/04 13:47:51;;;;;;;1.20;0.70;;;13.20;99.90;;;;;;5102466;28;20449;-79
2023/01/04 13:50:55;;;;;;;1.00;0.50;;;13.30;99.90;;;;;;5103052;28;20419;-79
2023/01/04 13:53:26;;;;;;;1.10;0.60;;;13.30;99.90;;;;;;5101314;28;20407;-79
2023/01/04 13:55:58;;;;;;;1.17;0.60;;;13.30;99.90;;;;;;5100555;28;20485;-79